Portada
METAR-TAF:

METAR-TAF

Aeroports :

Umiujaq, Quebec, Canadà

latitud: 56-32N, longitud: 076-31W, altitud: 71 m

Observació

L'informe es va fer fa 3 hores i 30 minuts, a les 21:00 UTC
Vent 7 kt del Sud/Sud-Est
Temperatura -2°C
Humitat 100%
Pressió 1020 hPa
Visibilitat: 24.1 km
Escasses núvols a una alçada de 1200 ft
Escasses núvols a una alçada de 4500 ft
Cel ennuvolat a una alçada de 7000 ft
Cel ennuvolat a una alçada de 22000 ft
xàfecs de neu

METAR: CYMU 212100Z 16007KT 15SM -SHSN FEW012 FEW045 BKN070 BKN220 M02/M02 A3013 RMK ST1SC2AC3CI1 ST TR LASTOBS/NEXT 22 1200Z SLP210

Hora: 20:30 (00:30 UTC)


TAF: manca

Observacions i pronòstics meteorològics de més de 4000 aeroports (METAR i TAF).

Les estacions disponibles són els punts grocs i vermells al mapa.

Posi el ratolí al punt desitjat per veure el nom de l'estació.

Feu clic per veure les observacions i els pronòstics meteorològics.

Per canviar el mapa: feu clic els botons verds amb una creu de color negre per apropar; al botó verd amb un guió per allunyar la imatge; o en les fletxes verdes per a mapes adjacents.


METAR-TAF: